Time;durP1;ratioP1;P1;durP2;ratioP2;P2;SDS_P1;SDS_P2;PMS_P1;PMS_P2;Temp;Humidity;BMP_temperature;BMP_pressure;BME280_temperature;BME280_humidity;BME280_pressure;Samples;Min_cycle;Max_cycle;Signal;HPM_P1;HPM_P2
2022/11/15 00:01:51;;;;;;;0.10;0.10;;;;;;;;;;5090965;28;20070;-72
2022/11/15 00:04:34;;;;;;;0.10;0.10;;;;;;;;;;5108621;28;20070;-72
2022/11/15 00:07:19;;;;;;;0.10;0.10;;;;;;;;;;5111205;28;20123;-72
2022/11/15 00:10:03;;;;;;;0.10;0.10;;;;;;;;;;5104259;28;20170;-71
2022/11/15 00:12:48;;;;;;;0.10;0.10;;;;;;;;;;5090629;28;20039;-71
2022/11/15 00:15:34;;;;;;;0.10;0.10;;;;;;;;;;5090365;28;20101;-71
2022/11/15 00:18:18;;;;;;;0.10;0.10;;;;;;;;;;5094453;28;20551;-71
2022/11/15 00:21:05;;;;;;;0.10;0.10;;;;;;;;;;5094607;28;20059;-71
2022/11/15 00:23:49;;;;;;;0.10;0.10;;;;;;;;;;5101362;28;20031;-70
2022/11/15 00:26:34;;;;;;;0.10;0.10;;;;;;;;;;5104473;28;20460;-70
2022/11/15 00:29:19;;;;;;;0.10;0.10;;;;;;;;;;5094418;28;20039;-70
2022/11/15 00:32:03;;;;;;;0.10;0.10;;;;;;;;;;5094632;28;20047;-69
2022/11/15 00:34:47;;;;;;;0.10;0.10;;;;;;;;;;5093729;28;20062;-70
2022/11/15 00:37:31;;;;;;;0.10;0.10;;;;;;;;;;5093336;28;20087;-70
2022/11/15 00:40:15;;;;;;;0.45;0.45;;;;;;;;;;5093545;28;20082;-70
2022/11/15 00:42:59;;;;;;;0.20;0.20;;;;;;;;;;5091671;28;20446;-70
2022/11/15 00:45:43;;;;;;;0.52;0.52;;;;;;;;;;5091030;28;20502;-70
2022/11/15 00:48:27;;;;;;;0.10;0.10;;;;;;;;;;5093266;28;20043;-69
2022/11/15 00:51:11;;;;;;;0.10;0.10;;;;;;;;;;5093300;28;20524;-71
2022/11/15 00:53:56;;;;;;;0.10;0.10;;;;;;;;;;5093307;28;20043;-70
2022/11/15 00:56:40;;;;;;;0.10;0.10;;;;;;;;;;5093731;28;20541;-70
2022/11/15 00:59:25;;;;;;;1.10;0.80;;;;;;;;;;5103990;28;20065;-70
2022/11/15 01:02:09;;;;;;;0.20;0.20;;;;;;;;;;5113409;28;20088;-70
2022/11/15 01:04:54;;;;;;;0.47;0.47;;;;;;;;;;5113679;28;20077;-70
2022/11/15 01:07:38;;;;;;;0.32;0.32;;;;;;;;;;5113587;28;20571;-69
2022/11/15 01:10:23;;;;;;;0.30;0.30;;;;;;;;;;5113274;28;20394;-70
2022/11/15 01:13:08;;;;;;;0.10;0.10;;;;;;;;;;5113525;28;20041;-69
2022/11/15 01:15:52;;;;;;;0.10;0.10;;;;;;;;;;5113112;28;20115;-69
2022/11/15 01:18:36;;;;;;;0.10;0.10;;;;;;;;;;5113303;28;20034;-69
2022/11/15 01:21:20;;;;;;;0.10;0.10;;;;;;;;;;5113276;28;20034;-71
2022/11/15 01:24:04;;;;;;;0.40;0.40;;;;;;;;;;5101325;28;20066;-68
2022/11/15 01:26:48;;;;;;;0.10;0.10;;;;;;;;;;5091927;28;20066;-70
2022/11/15 01:29:32;;;;;;;0.10;0.10;;;;;;;;;;5092824;28;20093;-69
2022/11/15 01:32:17;;;;;;;0.12;0.12;;;;;;;;;;5035076;28;1609358;-69
2022/11/15 01:35:00;;;;;;;0.73;0.73;;;;;;;;;;5093658;28;20035;-70
2022/11/15 01:37:44;;;;;;;0.45;0.45;;;;;;;;;;5093501;28;20406;-69
2022/11/15 01:40:28;;;;;;;0.17;0.17;;;;;;;;;;5092708;28;20059;-70
2022/11/15 01:43:19;;;;;;;0.52;0.52;;;;;;;;;;5093646;28;20107;-69
2022/11/15 01:46:22;;;;;;;0.10;0.10;;;;;;;;;;5093511;28;20096;-70
2022/11/15 01:49:12;;;;;;;6.30;3.75;;;;;;;;;;5093570;28;20047;-68
2022/11/15 01:51:57;;;;;;;0.15;0.15;;;;;;;;;;5092594;28;20117;-69
2022/11/15 01:54:42;;;;;;;0.25;0.25;;;;;;;;;;5098676;28;20123;-71
2022/11/15 01:57:26;;;;;;;1.45;1.38;;;;;;;;;;5119041;28;20459;-71
2022/11/15 02:00:11;;;;;;;0.10;0.10;;;;;;;;;;5123378;28;20046;-71
2022/11/15 02:02:54;;;;;;;0.98;0.88;;;;;;;;;;5121318;28;20444;-71
2022/11/15 02:05:38;;;;;;;0.10;0.10;;;;;;;;;;5113581;28;20176;-71
2022/11/15 02:08:23;;;;;;;0.10;0.10;;;;;;;;;;5113343;28;20106;-71
2022/11/15 02:11:08;;;;;;;0.10;0.10;;;;;;;;;;5112445;28;20059;-71
2022/11/15 02:13:53;;;;;;;0.88;0.85;;;;;;;;;;5113486;28;20077;-71
2022/11/15 02:16:43;;;;;;;1.50;1.40;;;;;;;;;;5113564;28;20046;-71
2022/11/15 02:19:33;;;;;;;0.10;0.10;;;;;;;;;;5113637;28;20088;-72
2022/11/15 02:22:23;;;;;;;2.15;2.05;;;;;;;;;;5113628;28;20080;-71
2022/11/15 02:25:26;;;;;;;0.10;0.10;;;;;;;;;;5113588;28;20076;-71
2022/11/15 02:28:10;;;;;;;0.10;0.10;;;;;;;;;;5112054;28;20100;-71
2022/11/15 02:30:58;;;;;;;0.10;0.10;;;;;;;;;;5113373;28;20119;-71
2022/11/15 02:33:46;;;;;;;0.10;0.10;;;;;;;;;;5113631;28;20093;-71
2022/11/15 02:36:37;;;;;;;0.13;0.13;;;;;;;;;;5113180;28;20055;-71
2022/11/15 02:39:35;;;;;;;0.10;0.10;;;;;;;;;;5101754;28;20132;-71
2022/11/15 02:45:31;;;;;;;0.55;0.55;;;;;;;;;;5096615;28;20035;-71
2022/11/15 02:48:16;;;;;;;0.20;0.20;;;;;;;;;;5096640;28;20051;-73
2022/11/15 02:51:00;;;;;;;0.10;0.10;;;;;;;;;;5096537;28;20106;-72
2022/11/15 02:53:45;;;;;;;0.10;0.10;;;;;;;;;;5095668;28;20047;-72
2022/11/15 02:56:29;;;;;;;0.10;0.10;;;;;;;;;;5096468;28;20042;-72
2022/11/15 02:59:23;;;;;;;0.10;0.10;;;;;;;;;;5098089;28;20058;-72
2022/11/15 03:02:18;;;;;;;0.10;0.10;;;;;;;;;;5104495;28;20039;-72
2022/11/15 03:05:18;;;;;;;0.10;0.10;;;;;;;;;;5096368;28;20093;-72
2022/11/15 03:08:08;;;;;;;0.20;0.20;;;;;;;;;;5099961;28;20039;-72
2022/11/15 03:10:52;;;;;;;0.30;0.30;;;;;;;;;;5116720;28;20402;-72
2022/11/15 03:13:45;;;;;;;0.10;0.10;;;;;;;;;;5115361;28;20038;-73
2022/11/15 03:16:30;;;;;;;0.45;0.45;;;;;;;;;;5116378;28;20101;-72
2022/11/15 03:19:24;;;;;;;0.88;0.88;;;;;;;;;;5104773;28;20384;-72
2022/11/15 03:22:11;;;;;;;0.35;0.30;;;;;;;;;;5096101;28;20070;-72
2022/11/15 03:24:57;;;;;;;0.10;0.10;;;;;;;;;;5096117;28;20069;-72
2022/11/15 03:27:43;;;;;;;0.10;0.10;;;;;;;;;;5095976;28;20058;-72
2022/11/15 03:30:27;;;;;;;0.17;0.17;;;;;;;;;;5095947;28;20113;-72
2022/11/15 03:33:11;;;;;;;0.20;0.20;;;;;;;;;;5095518;28;20506;-72
2022/11/15 03:35:55;;;;;;;0.17;0.17;;;;;;;;;;5094677;28;20047;-72
2022/11/15 03:38:40;;;;;;;0.10;0.10;;;;;;;;;;5095745;28;20127;-72
2022/11/15 03:41:46;;;;;;;0.10;0.10;;;;;;;;;;5095714;28;20035;-71
2022/11/15 03:44:49;;;;;;;0.10;0.10;;;;;;;;;;5095914;28;20047;-71
2022/11/15 03:47:43;;;;;;;0.10;0.10;;;;;;;;;;5095352;28;20510;-71
2022/11/15 03:50:28;;;;;;;0.10;0.10;;;;;;;;;;5094374;28;20081;-71
2022/11/15 03:53:12;;;;;;;0.10;0.10;;;;;;;;;;5095464;28;20051;-70
2022/11/15 03:55:57;;;;;;;0.30;0.30;;;;;;;;;;5112725;28;20054;-70
2022/11/15 03:58:41;;;;;;;0.30;0.30;;;;;;;;;;5115689;28;20076;-70
2022/11/15 04:01:25;;;;;;;0.50;0.50;;;;;;;;;;5115465;28;20034;-71
2022/11/15 04:04:09;;;;;;;0.20;0.20;;;;;;;;;;5091561;28;20073;-71
2022/11/15 04:06:53;;;;;;;0.13;0.13;;;;;;;;;;5091430;28;20401;-75
2022/11/15 04:10:01;;;;;;;0.13;0.13;;;;;;;;;;5091070;28;20066;-71
2022/11/15 04:12:46;;;;;;;0.10;0.10;;;;;;;;;;5090846;28;20410;-72
2022/11/15 04:15:30;;;;;;;0.10;0.10;;;;;;;;;;5090768;28;20047;-71
2022/11/15 04:18:14;;;;;;;0.10;0.10;;;;;;;;;;5090954;28;20399;-70
2022/11/15 04:26:49;;;;;;;0.13;0.13;;;;;;;;;;5090634;28;20043;-71
2022/11/15 04:29:36;;;;;;;0.10;0.10;;;;;;;;;;5090905;28;20046;-71
2022/11/15 04:32:21;;;;;;;0.10;0.10;;;;;;;;;;5089319;28;20043;-71
2022/11/15 04:35:05;;;;;;;0.10;0.10;;;;;;;;;;5091367;28;20051;-71
2022/11/15 04:37:49;;;;;;;0.15;0.15;;;;;;;;;;5090875;28;20109;-72
2022/11/15 04:40:34;;;;;;;0.15;0.15;;;;;;;;;;5090445;28;20039;-70
2022/11/15 04:43:19;;;;;;;0.20;0.20;;;;;;;;;;5090673;28;20077;-70
2022/11/15 04:46:03;;;;;;;0.90;0.90;;;;;;;;;;5090526;28;20046;-72
2022/11/15 04:48:47;;;;;;;0.10;0.10;;;;;;;;;;5090274;28;20081;-71
2022/11/15 04:51:31;;;;;;;0.10;0.10;;;;;;;;;;5090392;28;20100;-71
2022/11/15 04:54:16;;;;;;;0.20;0.20;;;;;;;;;;5090305;28;20038;-70
2022/11/15 04:57:00;;;;;;;0.10;0.10;;;;;;;;;;5090526;28;20086;-70
2022/11/15 04:59:44;;;;;;;0.10;0.10;;;;;;;;;;5090463;28;20046;-70
2022/11/15 05:04:18;;;;;;;0.10;0.10;;;;;;;;;;5090176;28;20043;-71
2022/11/15 05:05:33;;;;;;;0.10;0.10;;;;;;;;;;5090004;28;20391;-70
2022/11/15 05:08:17;;;;;;;0.10;0.10;;;;;;;;;;5090370;28;20047;-71
2022/11/15 05:11:02;;;;;;;0.40;0.40;;;;;;;;;;5090354;28;20035;-71
2022/11/15 05:13:46;;;;;;;0.10;0.10;;;;;;;;;;5090303;28;20038;-72
2022/11/15 05:16:30;;;;;;;0.40;0.40;;;;;;;;;;5090033;28;20312;-70
2022/11/15 05:19:14;;;;;;;0.10;0.10;;;;;;;;;;5090093;28;20039;-72
2022/11/15 05:21:59;;;;;;;0.10;0.10;;;;;;;;;;5090003;28;20030;-71
2022/11/15 05:24:43;;;;;;;0.63;0.52;;;;;;;;;;5089602;28;20035;-71
2022/11/15 05:27:27;;;;;;;0.10;0.10;;;;;;;;;;5088905;28;20071;-72
2022/11/15 05:30:12;;;;;;;0.10;0.10;;;;;;;;;;5089860;28;20505;-73
2022/11/15 05:32:56;;;;;;;0.20;0.20;;;;;;;;;;5089420;28;20059;-71
2022/11/15 05:35:43;;;;;;;0.15;0.15;;;;;;;;;;5089474;28;20043;-71
2022/11/15 05:38:28;;;;;;;0.20;0.20;;;;;;;;;;5089498;28;20115;-72
2022/11/15 05:41:13;;;;;;;0.10;0.10;;;;;;;;;;5089622;28;20039;-73
2022/11/15 05:43:58;;;;;;;0.10;0.10;;;;;;;;;;5089060;28;20038;-73
2022/11/15 05:46:43;;;;;;;0.10;0.10;;;;;;;;;;5094454;28;20043;-74
2022/11/15 05:49:30;;;;;;;0.10;0.10;;;;;;;;;;5108662;28;20123;-74
2022/11/15 05:52:16;;;;;;;0.10;0.10;;;;;;;;;;5109716;28;20043;-73
2022/11/15 05:55:01;;;;;;;0.10;0.10;;;;;;;;;;5091653;28;20077;-71
2022/11/15 05:57:46;;;;;;;0.10;0.10;;;;;;;;;;5089333;28;20043;-71
2022/11/15 06:00:30;;;;;;;0.13;0.13;;;;;;;;;;5090471;28;20050;-72
2022/11/15 06:03:14;;;;;;;0.20;0.20;;;;;;;;;;5089205;28;20399;-73
2022/11/15 06:05:58;;;;;;;0.55;0.55;;;;;;;;;;5090710;28;20115;-72
2022/11/15 06:08:42;;;;;;;0.10;0.10;;;;;;;;;;5093337;28;20078;-71
2022/11/15 06:11:26;;;;;;;0.50;0.50;;;;;;;;;;5089208;28;20525;-71
2022/11/15 06:14:10;;;;;;;0.10;0.10;;;;;;;;;;5090399;28;20390;-69
2022/11/15 06:16:55;;;;;;;0.65;0.65;;;;;;;;;;5093078;28;20549;-70
2022/11/15 06:19:39;;;;;;;0.10;0.10;;;;;;;;;;5095718;28;20035;-73
2022/11/15 06:22:24;;;;;;;0.10;0.10;;;;;;;;;;5101071;28;20123;-72
2022/11/15 06:25:08;;;;;;;0.10;0.10;;;;;;;;;;5094330;28;20034;-71
2022/11/15 06:27:53;;;;;;;0.20;0.20;;;;;;;;;;5103085;28;20101;-70
2022/11/15 06:30:37;;;;;;;0.20;0.20;;;;;;;;;;5104097;28;20035;-73
2022/11/15 06:33:21;;;;;;;0.10;0.10;;;;;;;;;;5098624;28;20079;-73
2022/11/15 06:36:07;;;;;;;0.10;0.10;;;;;;;;;;5094113;28;20035;-72
2022/11/15 06:38:51;;;;;;;0.10;0.10;;;;;;;;;;5093740;28;20039;-71
2022/11/15 06:41:35;;;;;;;0.63;0.63;;;;;;;;;;5093511;28;20085;-71
2022/11/15 06:44:19;;;;;;;5.68;2.75;;;;;;;;;;5104317;28;20484;-70
2022/11/15 06:47:03;;;;;;;0.10;0.10;;;;;;;;;;5108740;28;20682;-72
2022/11/15 06:50:04;;;;;;;0.03;0.03;;;;;;;;;;5113174;28;20441;-71
2022/11/15 06:52:50;;;;;;;0.10;0.10;;;;;;;;;;5111255;28;20038;-72
2022/11/15 06:59:08;;;;;;;0.10;0.10;;;;;;;;;;5112724;28;20443;-71
2022/11/15 07:02:13;;;;;;;0.10;0.10;;;;;;;;;;5112371;28;20060;-72
2022/11/15 07:04:57;;;;;;;0.47;0.47;;;;;;;;;;5112614;28;20046;-73
2022/11/15 07:07:45;;;;;;;0.10;0.10;;;;;;;;;;5110047;28;20043;-70
2022/11/15 07:10:29;;;;;;;0.10;0.10;;;;;;;;;;5092594;28;20069;-71
2022/11/15 07:13:34;;;;;;;0.98;0.98;;;;;;;;;;5098574;28;20031;-70
2022/11/15 07:16:20;;;;;;;0.10;0.10;;;;;;;;;;5093417;28;20517;-71
2022/11/15 07:19:04;;;;;;;0.20;0.20;;;;;;;;;;5098621;28;20035;-71
2022/11/15 07:21:49;;;;;;;0.10;0.10;;;;;;;;;;5103047;28;20135;-70
2022/11/15 07:24:33;;;;;;;0.10;0.10;;;;;;;;;;5103953;28;20035;-73
2022/11/15 07:27:17;;;;;;;0.10;0.10;;;;;;;;;;5102159;28;20070;-73
2022/11/15 07:30:01;;;;;;;1.75;1.65;;;;;;;;;;5101574;28;20035;-71
2022/11/15 07:32:46;;;;;;;0.10;0.10;;;;;;;;;;5099789;28;20149;-71
2022/11/15 07:35:30;;;;;;;0.20;0.20;;;;;;;;;;5099955;28;20135;-72
2022/11/15 07:38:19;;;;;;;65.10;2.55;;;;;;;;;;5102702;28;20451;-71
2022/11/15 07:41:04;;;;;;;0.10;0.10;;;;;;;;;;5099897;28;20523;-72
2022/11/15 07:43:51;;;;;;;0.90;0.82;;;;;;;;;;5101841;28;20604;-72
2022/11/15 07:46:35;;;;;;;0.10;0.10;;;;;;;;;;5103141;28;20043;-71
2022/11/15 07:49:19;;;;;;;0.65;0.57;;;;;;;;;;5101877;28;20118;-71
2022/11/15 07:52:03;;;;;;;0.10;0.10;;;;;;;;;;5101007;28;20058;-72
2022/11/15 07:54:47;;;;;;;0.10;0.10;;;;;;;;;;5098107;28;20034;-72
2022/11/15 07:57:32;;;;;;;1.85;0.75;;;;;;;;;;5099674;28;20371;-73
2022/11/15 08:00:17;;;;;;;0.10;0.10;;;;;;;;;;5090132;28;20050;-72
2022/11/15 08:03:05;;;;;;;0.10;0.10;;;;;;;;;;5092954;28;20525;-72
2022/11/15 08:05:50;;;;;;;0.20;0.20;;;;;;;;;;5101544;28;20444;-72
2022/11/15 08:08:34;;;;;;;0.10;0.10;;;;;;;;;;5094793;28;20035;-72
2022/11/15 08:11:18;;;;;;;0.10;0.10;;;;;;;;;;5106951;28;20123;-71
2022/11/15 08:14:03;;;;;;;0.20;0.20;;;;;;;;;;5105087;27;20080;-72
2022/11/15 08:16:47;;;;;;;0.28;0.25;;;;;;;;;;5130978;27;20050;-72
2022/11/15 08:19:31;;;;;;;0.10;0.10;;;;;;;;;;5123362;27;20039;-71
2022/11/15 08:22:16;;;;;;;0.10;0.10;;;;;;;;;;5102784;27;20546;-74
2022/11/15 08:25:00;;;;;;;0.10;0.10;;;;;;;;;;5095747;28;20082;-76
2022/11/15 08:27:44;;;;;;;0.10;0.10;;;;;;;;;;5091079;28;20039;-78
2022/11/15 08:30:30;;;;;;;0.10;0.10;;;;;;;;;;5112971;27;20039;-79
2022/11/15 08:33:14;;;;;;;1.10;0.40;;;;;;;;;;5110380;28;20062;-77
2022/11/15 08:35:59;;;;;;;0.20;0.20;;;;;;;;;;5107011;28;20046;-77
2022/11/15 08:38:43;;;;;;;0.20;0.20;;;;;;;;;;5109383;28;20039;-80
2022/11/15 08:41:30;;;;;;;0.10;0.10;;;;;;;;;;5106135;28;20045;-76
2022/11/15 08:44:14;;;;;;;0.10;0.10;;;;;;;;;;5100890;27;20415;-77
2022/11/15 08:46:58;;;;;;;0.10;0.10;;;;;;;;;;5089989;28;20036;-77
2022/11/15 08:49:42;;;;;;;0.20;0.20;;;;;;;;;;5090546;28;20035;-76
2022/11/15 08:52:26;;;;;;;0.10;0.10;;;;;;;;;;5092574;28;20090;-77
2022/11/15 08:55:10;;;;;;;0.20;0.20;;;;;;;;;;5102736;28;20089;-76
2022/11/15 08:57:56;;;;;;;0.20;0.20;;;;;;;;;;5094136;28;20055;-77
2022/11/15 09:00:41;;;;;;;0.13;0.13;;;;;;;;;;5097354;27;20053;-77
2022/11/15 09:03:25;;;;;;;0.30;0.30;;;;;;;;;;5090753;28;20114;-75
2022/11/15 09:06:09;;;;;;;0.20;0.20;;;;;;;;;;5098629;28;20660;-75
2022/11/15 09:08:53;;;;;;;0.20;0.20;;;;;;;;;;5097738;28;20566;-76
2022/11/15 09:11:38;;;;;;;0.10;0.10;;;;;;;;;;5097633;28;20555;-73
2022/11/15 09:14:22;;;;;;;0.10;0.10;;;;;;;;;;5098278;28;20169;-77
2022/11/15 09:17:09;;;;;;;0.80;0.80;;;;;;;;;;5100891;28;20047;-77
2022/11/15 09:19:53;;;;;;;0.20;0.20;;;;;;;;;;5088280;28;20112;-77
2022/11/15 09:22:38;;;;;;;0.10;0.10;;;;;;;;;;5088413;28;20035;-76
2022/11/15 09:25:23;;;;;;;0.10;0.10;;;;;;;;;;5088709;28;20403;-77
2022/11/15 09:28:08;;;;;;;0.10;0.10;;;;;;;;;;5088347;28;20396;-78
2022/11/15 09:30:55;;;;;;;0.10;0.10;;;;;;;;;;5087107;28;20640;-78
2022/11/15 09:33:39;;;;;;;1.20;0.50;;;;;;;;;;5088297;28;20102;-77
2022/11/15 09:36:24;;;;;;;0.10;0.10;;;;;;;;;;5091461;28;20051;-78
2022/11/15 09:39:08;;;;;;;0.10;0.10;;;;;;;;;;5100369;28;20043;-80
2022/11/15 09:41:55;;;;;;;0.10;0.10;;;;;;;;;;5101454;28;20059;-78
2022/11/15 09:44:40;;;;;;;0.20;0.20;;;;;;;;;;5088437;28;20047;-78
2022/11/15 09:47:43;;;;;;;0.10;0.10;;;;;;;;;;5092431;28;20112;-78
2022/11/15 09:50:33;;;;;;;0.20;0.20;;;;;;;;;;5097300;28;20028;-77
2022/11/15 09:52:59;;;;;;;0.10;0.10;;;;;;;;;;5107089;28;20055;-77
2022/11/15 09:55:32;;;;;;;0.30;0.30;;;;;;;;;;5108712;27;20011;-77
2022/11/15 09:58:06;;;;;;;0.50;0.50;;;;;;;;;;5101985;28;20040;-76
2022/11/15 10:00:38;;;;;;;0.20;0.20;;;;;;;;;;5092138;28;20060;-76
2022/11/15 10:03:12;;;;;;;0.10;0.10;;;;;;;;;;5093836;28;20031;-78
2022/11/15 10:05:42;;;;;;;0.20;0.20;;;;;;;;;;5105943;28;20050;-77
2022/11/15 10:08:26;;;;;;;0.30;0.30;;;;;;;;;;5107054;28;20037;-77
2022/11/15 10:10:57;;;;;;;0.30;0.30;;;;;;;;;;5106319;28;20096;-77
2022/11/15 10:13:24;;;;;;;0.20;0.20;;;;;;;;;;5103343;28;20038;-77
2022/11/15 10:15:50;;;;;;;0.17;0.17;;;;;;;;;;5112308;28;20012;-77
2022/11/15 10:18:16;;;;;;;1.17;0.50;;;;;;;;;;5113110;28;20470;-79
2022/11/15 10:20:57;;;;;;;0.22;0.22;;;;;;;;;;5095451;27;20107;-80
2022/11/15 10:23:23;;;;;;;0.30;0.30;;;;;;;;;;5103558;28;20058;-77
2022/11/15 10:25:53;;;;;;;0.20;0.20;;;;;;;;;;5093453;28;20024;-76
2022/11/15 10:28:30;;;;;;;0.20;0.20;;;;;;;;;;5107985;28;20019;-76
2022/11/15 10:30:57;;;;;;;0.35;0.35;;;;;;;;;;5112261;28;20031;-78
2022/11/15 10:33:33;;;;;;;0.30;0.30;;;;;;;;;;5112929;28;20112;-78
2022/11/15 10:36:17;;;;;;;0.30;0.30;;;;;;;;;;5111782;28;20032;-77
2022/11/15 10:38:49;;;;;;;0.32;0.32;;;;;;;;;;5112694;28;20031;-77
2022/11/15 10:41:35;;;;;;;1.05;0.95;;;;;;;;;;5113052;28;20024;-76
2022/11/15 10:44:07;;;;;;;0.40;0.40;;;;;;;;;;5112429;28;20040;-78
2022/11/15 10:46:33;;;;;;;0.20;0.20;;;;;;;;;;5112498;28;20036;-83
2022/11/15 10:49:12;;;;;;;0.30;0.30;;;;;;;;;;5112594;28;20028;-77
2022/11/15 10:51:42;;;;;;;0.20;0.20;;;;;;;;;;5112521;28;20081;-77
2022/11/15 10:54:10;;;;;;;0.20;0.20;;;;;;;;;;5112203;28;20483;-76
2022/11/15 10:56:36;;;;;;;0.20;0.20;;;;;;;;;;5112060;28;20057;-83
2022/11/15 10:59:02;;;;;;;0.60;0.60;;;;;;;;;;5112903;28;20122;-79
2022/11/15 11:01:31;;;;;;;0.45;0.40;;;;;;;;;;5104298;28;20436;-76
2022/11/15 11:03:58;;;;;;;;;;;;;;;;;;5097507;28;20081;-79
2022/11/15 11:06:25;;;;;;;0.20;0.20;;;;;;;;;;5095013;28;19912;-74
2022/11/15 11:08:55;;;;;;;0.52;0.52;;;;;;;;;;5097639;28;20027;-73
2022/11/15 11:11:21;;;;;;;4.28;1.05;;;;;;;;;;5090237;28;20020;-72
2022/11/15 11:13:47;;;;;;;0.20;0.20;;;;;;;;;;5093148;28;20050;-74
2022/11/15 11:16:13;;;;;;;0.38;0.38;;;;;;;;;;5101276;28;20115;-74
2022/11/15 11:18:38;;;;;;;0.28;0.28;;;;;;;;;;5092977;28;20421;-74
2022/11/15 11:21:09;;;;;;;0.75;0.75;;;;;;;;;;5110475;28;20039;-74
2022/11/15 11:23:44;;;;;;;0.30;0.30;;;;;;;;;;5109905;28;20050;-74
2022/11/15 11:26:28;;;;;;;0.30;0.30;;;;;;;;;;5096037;28;20028;-74
2022/11/15 11:29:02;;;;;;;0.50;0.50;;;;;;;;;;5095902;28;20063;-75
2022/11/15 11:31:47;;;;;;;0.20;0.20;;;;;;;;;;5089451;28;20028;-75
2022/11/15 11:34:19;;;;;;;0.20;0.20;;;;;;;;;;5100670;28;20047;-75
2022/11/15 11:36:54;;;;;;;0.20;0.20;;;;;;;;;;5111134;28;20035;-74
2022/11/15 11:39:55;;;;;;;0.52;0.52;;;;;;;;;;5111632;28;20563;-76
2022/11/15 11:42:23;;;;;;;0.40;0.40;;;;;;;;;;5051956;28;20125;-76
2022/11/15 11:45:15;;;;;;;0.40;0.40;;;;;;;;;;5098584;28;20202;-75
2022/11/15 11:47:46;;;;;;;0.20;0.20;;;;;;;;;;5111692;28;20023;-75
2022/11/15 11:50:18;;;;;;;3.38;2.03;;;;;;;;;;5110574;28;20035;-75
2022/11/15 11:52:54;;;;;;;0.30;0.30;;;;;;;;;;5104930;28;20372;-75
2022/11/15 11:55:26;;;;;;;0.40;0.30;;;;;;;;;;5090211;28;20115;-74
2022/11/15 11:58:10;;;;;;;1.00;0.77;;;;;;;;;;5091433;28;20040;-75
2022/11/15 12:00:39;;;;;;;0.40;0.32;;;;;;;;;;5095885;28;20020;-75
2022/11/15 12:03:07;;;;;;;1.02;0.55;;;;;;;;;;5090444;28;20551;-75
2022/11/15 12:05:39;;;;;;;0.30;0.30;;;;;;;;;;5100442;28;20027;-75
2022/11/15 12:08:31;;;;;;;0.47;0.43;;;;;;;;;;5110961;28;20031;-76
2022/11/15 12:11:07;;;;;;;0.30;0.30;;;;;;;;;;5093924;28;20546;-75
2022/11/15 12:13:36;;;;;;;1.77;1.38;;;;;;;;;;5109029;28;20122;-76
2022/11/15 12:16:19;;;;;;;0.47;0.47;;;;;;;;;;5109619;28;20031;-73
2022/11/15 12:18:50;;;;;;;0.98;0.88;;;;;;;;;;5110652;28;20388;-73
2022/11/15 12:21:19;;;;;;;1.20;0.93;;;;;;;;;;5110155;28;20027;-75
2022/11/15 12:23:53;;;;;;;0.95;0.75;;;;;;;;;;5108870;28;20028;-74
2022/11/15 12:26:23;;;;;;;0.95;0.88;;;;;;;;;;5094339;28;20028;-73
2022/11/15 12:28:54;;;;;;;0.75;0.63;;;;;;;;;;5087482;28;20089;-74
2022/11/15 12:31:20;;;;;;;0.95;0.77;;;;;;;;;;5097274;28;20028;-75
2022/11/15 12:33:47;;;;;;;0.43;0.43;;;;;;;;;;5095970;28;20474;-75
2022/11/15 12:36:22;;;;;;;0.30;0.30;;;;;;;;;;5099801;28;20502;-74
2022/11/15 12:39:01;;;;;;;0.20;0.20;;;;;;;;;;5098862;28;20027;-75
2022/11/15 12:41:27;;;;;;;0.55;0.55;;;;;;;;;;5091892;28;20028;-72
2022/11/15 12:43:54;;;;;;;0.60;0.60;;;;;;;;;;5101447;28;20024;-75
2022/11/15 12:46:23;;;;;;;0.30;0.30;;;;;;;;;;5091221;28;20032;-74
2022/11/15 12:48:50;;;;;;;0.45;0.40;;;;;;;;;;5098709;28;20028;-75
2022/11/15 12:51:16;;;;;;;0.90;0.90;;;;;;;;;;5095469;28;20036;-74
2022/11/15 12:53:42;;;;;;;0.40;0.40;;;;;;;;;;5099625;28;20480;-75
2022/11/15 12:56:17;;;;;;;1.13;0.80;;;;;;;;;;5099202;28;20043;-73
2022/11/15 12:58:45;;;;;;;1.35;0.95;;;;;;;;;;5089402;28;20103;-72
2022/11/15 13:01:34;;;;;;;0.30;0.30;;;;;;;;;;5092801;28;20112;-73
2022/11/15 13:04:00;;;;;;;;;;;;;;;;;;5101069;28;20503;-74
2022/11/15 13:07:02;;;;;;;0.20;0.20;;;;;;;;;;5109736;28;19969;-76
2022/11/15 13:09:37;;;;;;;1.75;0.85;;;;;;;;;;5048260;28;20039;-73
2022/11/15 13:12:23;;;;;;;1.10;0.98;;;;;;;;;;5103417;28;20032;-72
2022/11/15 13:14:58;;;;;;;0.35;0.25;;;;;;;;;;5109422;28;20035;-73
2022/11/15 13:17:30;;;;;;;0.20;0.20;;;;;;;;;;5109648;28;20078;-73
2022/11/15 13:19:59;;;;;;;0.90;0.68;;;;;;;;;;5109766;28;20027;-74
2022/11/15 13:25:29;;;;;;;0.30;0.30;;;;;;;;;;5097001;28;20089;-75
2022/11/15 13:27:57;;;;;;;0.30;0.30;;;;;;;;;;5100587;28;20471;-73
2022/11/15 13:30:24;;;;;;;2.53;1.40;;;;;;;;;;5107642;28;20057;-75
2022/11/15 13:32:51;;;;;;;0.52;0.47;;;;;;;;;;5107411;28;20047;-74
2022/11/15 13:35:38;;;;;;;1.20;0.95;;;;;;;;;;5108748;28;20195;-73
2022/11/15 13:38:04;;;;;;;1.85;1.33;;;;;;;;;;5105787;28;20036;-73
2022/11/15 13:40:35;;;;;;;1.08;0.55;;;;;;;;;;5091754;28;20023;-75
2022/11/15 13:43:29;;;;;;;0.75;0.75;;;;;;;;;;5102317;28;20172;-75
2022/11/15 13:46:05;;;;;;;0.10;0.10;;;;;;;;;;5098684;28;20072;-74
2022/11/15 13:48:33;;;;;;;0.28;0.28;;;;;;;;;;5083253;28;20032;-75
2022/11/15 13:51:00;;;;;;;0.20;0.20;;;;;;;;;;5084713;28;20035;-74
2022/11/15 13:53:26;;;;;;;0.55;0.55;;;;;;;;;;5084478;28;20051;-74
2022/11/15 13:55:53;;;;;;;0.70;0.70;;;;;;;;;;5084194;28;20107;-75
2022/11/15 13:58:19;;;;;;;0.20;0.20;;;;;;;;;;5084060;28;20020;-75
2022/11/15 14:00:46;;;;;;;4.70;3.30;;;;;;;;;;5094164;28;20030;-74
2022/11/15 14:03:19;;;;;;;0.38;0.38;;;;;;;;;;5104808;28;20054;-75
2022/11/15 14:06:03;;;;;;;0.20;0.20;;;;;;;;;;5104590;28;20113;-75
2022/11/15 14:08:29;;;;;;;0.20;0.20;;;;;;;;;;5090670;28;20019;-73
2022/11/15 14:11:13;;;;;;;0.30;0.30;;;;;;;;;;5096853;28;20051;-74
2022/11/15 14:13:39;;;;;;;2.60;1.08;;;;;;;;;;5106023;28;20108;-74
2022/11/15 14:16:19;;;;;;;0.45;0.45;;;;;;;;;;5107277;28;20158;-74
2022/11/15 14:18:47;;;;;;;0.60;0.60;;;;;;;;;;5102305;27;20035;-74
2022/11/15 14:21:13;;;;;;;0.20;0.20;;;;;;;;;;5095847;28;20023;-75
2022/11/15 14:23:39;;;;;;;0.20;0.20;;;;;;;;;;5091311;28;20379;-73
2022/11/15 14:26:04;;;;;;;0.30;0.30;;;;;;;;;;5100805;28;20027;-74
2022/11/15 14:28:33;;;;;;;1.27;1.27;;;;;;;;;;5095882;28;20105;-74
2022/11/15 14:30:59;;;;;;;0.20;0.20;;;;;;;;;;5094457;28;20035;-73
2022/11/15 14:33:25;;;;;;;0.20;0.20;;;;;;;;;;5106948;28;20395;-75
2022/11/15 14:35:51;;;;;;;0.43;0.43;;;;;;;;;;5093353;28;20024;-77
2022/11/15 14:38:17;;;;;;;4.57;0.93;;;;;;;;;;5091875;28;20032;-76
2022/11/15 14:40:43;;;;;;;3.15;2.85;;;;;;;;;;5092820;28;20016;-77
2022/11/15 14:43:11;;;;;;;0.20;0.20;;;;;;;;;;5094676;28;20031;-75
2022/11/15 14:45:37;;;;;;;0.20;0.20;;;;;;;;;;5102136;28;20495;-76
2022/11/15 14:48:02;;;;;;;0.40;0.40;;;;;;;;;;5102277;28;20039;-76
2022/11/15 14:50:28;;;;;;;0.30;0.30;;;;;;;;;;5103658;28;20058;-76
2022/11/15 14:52:54;;;;;;;0.20;0.20;;;;;;;;;;5089863;28;20729;-75
2022/11/15 14:55:31;;;;;;;0.17;0.17;;;;;;;;;;5090936;28;20114;-75
2022/11/15 14:57:58;;;;;;;0.20;0.20;;;;;;;;;;5090237;28;20044;-76
2022/11/15 15:00:24;;;;;;;0.20;0.20;;;;;;;;;;5092121;28;20425;-76
2022/11/15 15:02:51;;;;;;;7.10;6.70;;;;;;;;;;5093901;28;20027;-75
2022/11/15 15:05:46;;;;;;;0.20;0.20;;;;;;;;;;5102058;28;20047;-75
2022/11/15 15:08:12;;;;;;;0.20;0.20;;;;;;;;;;5085509;28;20048;-75
2022/11/15 15:10:47;;;;;;;0.17;0.17;;;;;;;;;;5089739;28;20043;-76
2022/11/15 15:13:18;;;;;;;0.20;0.20;;;;;;;;;;5090330;28;20036;-75
2022/11/15 15:15:44;;;;;;;0.20;0.20;;;;;;;;;;5092621;28;20136;-76
2022/11/15 15:18:11;;;;;;;0.28;0.28;;;;;;;;;;5103605;28;20047;-75
2022/11/15 15:20:38;;;;;;;0.30;0.30;;;;;;;;;;5103364;28;20073;-75
2022/11/15 15:23:04;;;;;;;0.30;0.30;;;;;;;;;;5091667;28;20038;-76
2022/11/15 15:25:34;;;;;;;0.20;0.20;;;;;;;;;;5088398;28;20387;-76
2022/11/15 15:28:01;;;;;;;0.10;0.10;;;;;;;;;;5090060;28;20032;-75
2022/11/15 15:30:28;;;;;;;0.43;0.43;;;;;;;;;;5103373;28;20356;-76
2022/11/15 15:32:54;;;;;;;0.20;0.20;;;;;;;;;;5108275;28;20056;-77
2022/11/15 15:35:20;;;;;;;0.17;0.17;;;;;;;;;;5093194;28;20024;-76
2022/11/15 15:37:47;;;;;;;0.28;0.28;;;;;;;;;;5089656;28;20036;-76
2022/11/15 15:40:12;;;;;;;0.68;0.68;;;;;;;;;;5090066;28;20036;-76
2022/11/15 15:42:38;;;;;;;0.10;0.10;;;;;;;;;;5088597;28;20065;-76
2022/11/15 15:45:04;;;;;;;0.20;0.20;;;;;;;;;;5090015;28;20088;-76
2022/11/15 15:47:31;;;;;;;0.20;0.20;;;;;;;;;;5087985;28;20056;-75
2022/11/15 15:49:57;;;;;;;0.20;0.20;;;;;;;;;;5087671;28;20050;-76
2022/11/15 15:52:23;;;;;;;0.17;0.17;;;;;;;;;;5093115;28;20607;-77
2022/11/15 15:54:49;;;;;;;0.40;0.40;;;;;;;;;;5097248;28;20374;-76
2022/11/15 15:57:14;;;;;;;1.67;1.58;;;;;;;;;;5092305;28;20032;-76
2022/11/15 15:59:40;;;;;;;0.20;0.20;;;;;;;;;;5088727;28;20050;-76
2022/11/15 16:02:08;;;;;;;0.20;0.20;;;;;;;;;;5097418;28;20427;-76
2022/11/15 16:04:34;;;;;;;0.20;0.20;;;;;;;;;;5090275;28;20227;-77
2022/11/15 16:07:00;;;;;;;0.10;0.10;;;;;;;;;;5087657;28;20036;-78
2022/11/15 16:12:10;;;;;;;0.22;0.22;;;;;;;;;;5087705;28;20038;-76
2022/11/15 16:14:36;;;;;;;0.13;0.13;;;;;;;;;;5086753;28;20123;-77
2022/11/15 16:17:02;;;;;;;0.20;0.20;;;;;;;;;;5092973;28;20028;-78